QFA432 YMML-YSSY
Flight info
| Callsign | QFA432 |
|---|---|
| Flight time | 1h 6m |
| Altitude | 37000 |
| Route | ML H129 DOSEL Y59 RIVET |
| Aircraft | B38M/M-SDE1FGHILORVWXY/HB1 |
Departure
| Time | 2026-04-21 03:38 |
|---|---|
| Airport | Melbourne Airport (YMML) |
Arrival
| Time | 2026-04-21 04:44 |
|---|---|
| Airport | Sydney Kingsford Smith International Airport (YSSY) |
| Time | Latitude | Longitude | Altitude | Speed | Heading |
|---|---|---|---|---|---|
| 2026-04-21 03:12 | -37.66827 | 144.85027 | 398 ft | 0 kts | 261° |
| 2026-04-21 03:27 | -37.66824 | 144.85051 | 397 ft | 4 kts | 262° |
| 2026-04-21 03:27 | -37.66820 | 144.85085 | 397 ft | 4 kts | 262° |
| 2026-04-21 03:27 | -37.66816 | 144.85118 | 397 ft | 4 kts | 262° |
| 2026-04-21 03:27 | -37.66814 | 144.85130 | 397 ft | 1 kts | 262° |
| 2026-04-21 03:30 | -37.66814 | 144.85124 | 397 ft | 2 kts | 270° |
| 2026-04-21 03:31 | -37.66801 | 144.85105 | 395 ft | 4 kts | 330° |
| 2026-04-21 03:31 | -37.66761 | 144.85093 | 398 ft | 8 kts | 351° |
| 2026-04-21 03:31 | -37.66700 | 144.85081 | 399 ft | 10 kts | 352° |
| 2026-04-21 03:31 | -37.66624 | 144.85068 | 401 ft | 11 kts | 352° |
| 2026-04-21 03:32 | -37.66548 | 144.85040 | 404 ft | 13 kts | 314° |
| 2026-04-21 03:32 | -37.66540 | 144.84928 | 405 ft | 14 kts | 264° |
| 2026-04-21 03:32 | -37.66579 | 144.84809 | 402 ft | 17 kts | 218° |
| 2026-04-21 03:32 | -37.66644 | 144.84686 | 401 ft | 19 kts | 264° |
| 2026-04-21 03:33 | -37.66664 | 144.84518 | 398 ft | 20 kts | 261° |
| 2026-04-21 03:33 | -37.66686 | 144.84339 | 395 ft | 21 kts | 261° |
| 2026-04-21 03:33 | -37.66752 | 144.84190 | 393 ft | 22 kts | 189° |
| 2026-04-21 03:33 | -37.66910 | 144.84218 | 388 ft | 24 kts | 173° |
| 2026-04-21 03:34 | -37.67081 | 144.84252 | 384 ft | 25 kts | 173° |
| 2026-04-21 03:34 | -37.67260 | 144.84283 | 380 ft | 26 kts | 172° |
| 2026-04-21 03:34 | -37.67444 | 144.84315 | 376 ft | 24 kts | 172° |
| 2026-04-21 03:34 | -37.67595 | 144.84342 | 372 ft | 20 kts | 171° |
| 2026-04-21 03:35 | -37.67714 | 144.84365 | 368 ft | 14 kts | 171° |
| 2026-04-21 03:35 | -37.67792 | 144.84363 | 367 ft | 6 kts | 199° |
| 2026-04-21 03:35 | -37.67838 | 144.84317 | 361 ft | 11 kts | 233° |
| 2026-04-21 03:35 | -37.67862 | 144.84217 | 361 ft | 13 kts | 264° |
| 2026-04-21 03:36 | -37.67871 | 144.84142 | 361 ft | 5 kts | 261° |
| 2026-04-21 03:36 | -37.67878 | 144.84086 | 359 ft | 8 kts | 261° |
| 2026-04-21 03:36 | -37.67888 | 144.83997 | 358 ft | 11 kts | 276° |
| 2026-04-21 03:36 | -37.67823 | 144.83958 | 356 ft | 17 kts | 352° |
| 2026-04-21 03:37 | -37.67518 | 144.83901 | 366 ft | 72 kts | 351° |
| 2026-04-21 03:37 | -37.66862 | 144.83779 | 391 ft | 118 kts | 351° |
| 2026-04-21 03:37 | -37.65911 | 144.83602 | 464 ft | 154 kts | 353° |
| 2026-04-21 03:37 | -37.64836 | 144.83415 | 928 ft | 161 kts | 354° |
| 2026-04-21 03:38 | -37.63666 | 144.83233 | 1417 ft | 174 kts | 354° |
| 2026-04-21 03:38 | -37.62454 | 144.83004 | 2059 ft | 180 kts | 351° |
| 2026-04-21 03:38 | -37.61175 | 144.82718 | 2536 ft | 195 kts | 352° |
| 2026-04-21 03:38 | -37.59775 | 144.82481 | 2967 ft | 212 kts | 0° |
| 2026-04-21 03:39 | -37.58272 | 144.82811 | 3456 ft | 228 kts | 21° |
| 2026-04-21 03:39 | -37.56795 | 144.83661 | 4028 ft | 239 kts | 25° |
| 2026-04-21 03:39 | -37.55259 | 144.84606 | 4578 ft | 253 kts | 26° |
| 2026-04-21 03:39 | -37.54196 | 144.85266 | 4935 ft | 262 kts | 26° |
| 2026-04-21 03:40 | -37.52522 | 144.86294 | 5599 ft | 270 kts | 25° |
| 2026-04-21 03:40 | -37.50824 | 144.87326 | 6403 ft | 272 kts | 25° |
| 2026-04-21 03:40 | -37.49109 | 144.88364 | 7155 ft | 275 kts | 25° |
| 2026-04-21 03:40 | -37.47371 | 144.89415 | 7873 ft | 280 kts | 25° |
| 2026-04-21 03:41 | -37.45601 | 144.90491 | 8628 ft | 284 kts | 25° |
| 2026-04-21 03:41 | -37.43907 | 144.91791 | 9380 ft | 289 kts | 38° |
| 2026-04-21 03:41 | -37.42536 | 144.93653 | 10139 ft | 293 kts | 53° |
| 2026-04-21 03:41 | -37.41317 | 144.95759 | 10734 ft | 303 kts | 54° |
| 2026-04-21 03:42 | -37.40078 | 144.97979 | 11159 ft | 317 kts | 55° |
| 2026-04-21 03:42 | -37.38790 | 145.00306 | 11557 ft | 331 kts | 55° |
| 2026-04-21 03:42 | -37.37439 | 145.02722 | 11984 ft | 343 kts | 55° |
| 2026-04-21 03:42 | -37.36042 | 145.05192 | 12611 ft | 349 kts | 55° |
| 2026-04-21 03:43 | -37.34624 | 145.07684 | 13322 ft | 352 kts | 55° |
| 2026-04-21 03:43 | -37.33197 | 145.10193 | 13970 ft | 355 kts | 55° |
| 2026-04-21 03:43 | -37.31753 | 145.12738 | 14605 ft | 359 kts | 56° |
| 2026-04-21 03:43 | -37.30299 | 145.15308 | 15228 ft | 363 kts | 56° |
| 2026-04-21 03:44 | -37.28826 | 145.17910 | 15846 ft | 367 kts | 56° |
| 2026-04-21 03:44 | -37.27338 | 145.20532 | 16432 ft | 371 kts | 56° |
| 2026-04-21 03:44 | -37.25832 | 145.23184 | 17055 ft | 374 kts | 56° |
| 2026-04-21 03:44 | -37.24328 | 145.25826 | 17605 ft | 379 kts | 56° |
| 2026-04-21 03:45 | -37.22785 | 145.28532 | 18205 ft | 383 kts | 56° |
| 2026-04-21 03:45 | -37.21229 | 145.31262 | 18807 ft | 386 kts | 56° |
| 2026-04-21 03:45 | -37.19662 | 145.34011 | 19373 ft | 389 kts | 56° |
| 2026-04-21 03:45 | -37.18083 | 145.36779 | 19922 ft | 392 kts | 56° |
| 2026-04-21 03:46 | -37.16485 | 145.39577 | 20433 ft | 396 kts | 56° |
| 2026-04-21 03:46 | -37.14872 | 145.42396 | 20945 ft | 399 kts | 56° |
| 2026-04-21 03:46 | -37.13248 | 145.45231 | 21440 ft | 402 kts | 56° |
| 2026-04-21 03:46 | -37.11609 | 145.48089 | 21899 ft | 405 kts | 56° |
| 2026-04-21 03:47 | -37.09959 | 145.50960 | 22346 ft | 408 kts | 56° |
| 2026-04-21 03:47 | -37.08295 | 145.53854 | 22778 ft | 411 kts | 56° |
| 2026-04-21 03:47 | -37.06620 | 145.56768 | 23184 ft | 414 kts | 56° |
| 2026-04-21 03:47 | -37.04930 | 145.59711 | 23578 ft | 417 kts | 56° |
| 2026-04-21 03:48 | -37.03232 | 145.62663 | 23973 ft | 419 kts | 56° |
| 2026-04-21 03:48 | -37.01524 | 145.65626 | 24339 ft | 421 kts | 56° |
| 2026-04-21 03:48 | -36.99805 | 145.68604 | 24696 ft | 424 kts | 56° |
| 2026-04-21 03:48 | -36.98073 | 145.71603 | 25044 ft | 426 kts | 56° |
| 2026-04-21 03:49 | -36.96333 | 145.74617 | 25389 ft | 429 kts | 56° |
| 2026-04-21 03:49 | -36.94578 | 145.77651 | 25751 ft | 431 kts | 56° |
| 2026-04-21 03:49 | -36.92811 | 145.80698 | 26110 ft | 433 kts | 56° |
| 2026-04-21 03:49 | -36.91036 | 145.83757 | 26438 ft | 436 kts | 56° |
| 2026-04-21 03:50 | -36.89254 | 145.86829 | 26757 ft | 438 kts | 56° |
| 2026-04-21 03:50 | -36.87465 | 145.89917 | 27060 ft | 440 kts | 56° |
| 2026-04-21 03:50 | -36.85664 | 145.93021 | 27353 ft | 442 kts | 56° |
| 2026-04-21 03:50 | -36.83855 | 145.96134 | 27650 ft | 444 kts | 55° |
| 2026-04-21 03:51 | -36.82033 | 145.99260 | 27941 ft | 446 kts | 55° |
| 2026-04-21 03:51 | -36.80204 | 146.02395 | 28213 ft | 448 kts | 56° |
| 2026-04-21 03:51 | -36.78361 | 146.05555 | 28469 ft | 452 kts | 56° |
| 2026-04-21 03:51 | -36.76510 | 146.08728 | 28758 ft | 453 kts | 56° |
| 2026-04-21 03:52 | -36.74648 | 146.11911 | 29031 ft | 455 kts | 55° |
| 2026-04-21 03:52 | -36.72780 | 146.15105 | 29289 ft | 457 kts | 56° |
| 2026-04-21 03:52 | -36.70903 | 146.18311 | 29553 ft | 459 kts | 56° |
| 2026-04-21 03:52 | -36.69018 | 146.21526 | 29819 ft | 461 kts | 55° |
| 2026-04-21 03:53 | -36.67125 | 146.24752 | 30051 ft | 462 kts | 55° |
| 2026-04-21 03:53 | -36.65225 | 146.27990 | 30252 ft | 464 kts | 55° |
| 2026-04-21 03:53 | -36.63316 | 146.31242 | 30491 ft | 466 kts | 55° |
| 2026-04-21 03:53 | -36.61402 | 146.34499 | 30702 ft | 468 kts | 55° |
| 2026-04-21 03:54 | -36.59474 | 146.37773 | 30884 ft | 470 kts | 55° |
| 2026-04-21 03:54 | -36.57532 | 146.41064 | 31041 ft | 473 kts | 55° |
| 2026-04-21 03:54 | -36.55610 | 146.44321 | 31263 ft | 474 kts | 55° |
| 2026-04-21 03:54 | -36.53659 | 146.47624 | 31528 ft | 474 kts | 55° |
| 2026-04-21 03:55 | -36.51711 | 146.50921 | 31803 ft | 474 kts | 55° |
| 2026-04-21 03:55 | -36.49758 | 146.54226 | 32090 ft | 474 kts | 55° |
| 2026-04-21 03:55 | -36.47810 | 146.57518 | 32368 ft | 473 kts | 55° |
| 2026-04-21 03:55 | -36.45858 | 146.60808 | 32650 ft | 472 kts | 55° |
| 2026-04-21 03:56 | -36.43909 | 146.64091 | 32911 ft | 472 kts | 55° |
| 2026-04-21 03:56 | -36.41957 | 146.67378 | 33174 ft | 473 kts | 55° |
| 2026-04-21 03:56 | -36.40003 | 146.70664 | 33442 ft | 473 kts | 55° |
| 2026-04-21 03:56 | -36.38050 | 146.73946 | 33715 ft | 472 kts | 55° |
| 2026-04-21 03:57 | -36.36098 | 146.77222 | 33976 ft | 472 kts | 55° |
| 2026-04-21 03:57 | -36.34148 | 146.80489 | 34239 ft | 472 kts | 55° |
| 2026-04-21 03:57 | -36.32198 | 146.83757 | 34497 ft | 471 kts | 55° |
| 2026-04-21 03:57 | -36.30246 | 146.87028 | 34763 ft | 471 kts | 55° |
| 2026-04-21 03:58 | -36.28297 | 146.90287 | 35028 ft | 470 kts | 55° |
| 2026-04-21 03:58 | -36.26351 | 146.93539 | 35283 ft | 470 kts | 55° |
| 2026-04-21 03:58 | -36.24404 | 146.96788 | 35534 ft | 469 kts | 55° |
| 2026-04-21 03:58 | -36.22461 | 147.00028 | 35790 ft | 469 kts | 55° |
| 2026-04-21 03:59 | -36.20513 | 147.03276 | 36025 ft | 469 kts | 55° |
| 2026-04-21 03:59 | -36.18568 | 147.06510 | 36260 ft | 468 kts | 55° |
| 2026-04-21 03:59 | -36.16622 | 147.09747 | 36496 ft | 468 kts | 55° |
| 2026-04-21 04:00 | -36.12738 | 147.16197 | 36940 ft | 468 kts | 55° |
| 2026-04-21 04:00 | -36.10793 | 147.19421 | 37165 ft | 467 kts | 55° |
| 2026-04-21 04:00 | -36.08851 | 147.22638 | 37357 ft | 467 kts | 55° |
| 2026-04-21 04:01 | -36.04940 | 147.29109 | 37362 ft | 471 kts | 55° |
| 2026-04-21 04:01 | -36.01024 | 147.35570 | 37357 ft | 467 kts | 55° |
| 2026-04-21 04:02 | -35.97154 | 147.41946 | 37357 ft | 462 kts | 55° |
| 2026-04-21 04:02 | -35.93307 | 147.48278 | 37369 ft | 461 kts | 55° |
| 2026-04-21 04:03 | -35.89454 | 147.54606 | 37368 ft | 461 kts | 55° |
| 2026-04-21 04:03 | -35.85600 | 147.60911 | 37374 ft | 460 kts | 55° |
| 2026-04-21 04:04 | -35.81784 | 147.67162 | 37372 ft | 459 kts | 55° |
| 2026-04-21 04:04 | -35.77941 | 147.73440 | 37365 ft | 459 kts | 55° |
| 2026-04-21 04:05 | -35.74107 | 147.79688 | 37360 ft | 457 kts | 55° |
| 2026-04-21 04:05 | -35.70276 | 147.85919 | 37366 ft | 457 kts | 55° |
| 2026-04-21 04:06 | -35.66443 | 147.92146 | 37368 ft | 456 kts | 55° |
| 2026-04-21 04:06 | -35.62610 | 147.98357 | 37363 ft | 456 kts | 55° |
| 2026-04-21 04:07 | -35.58778 | 148.04561 | 37366 ft | 456 kts | 55° |
| 2026-04-21 04:07 | -35.54943 | 148.10756 | 37366 ft | 455 kts | 55° |
| 2026-04-21 04:08 | -35.51114 | 148.16928 | 37373 ft | 454 kts | 55° |
| 2026-04-21 04:08 | -35.47285 | 148.23094 | 37381 ft | 454 kts | 55° |
| 2026-04-21 04:09 | -35.43437 | 148.29273 | 37380 ft | 456 kts | 55° |
| 2026-04-21 04:09 | -35.39594 | 148.35440 | 37368 ft | 455 kts | 54° |
| 2026-04-21 04:10 | -35.35746 | 148.41600 | 37378 ft | 456 kts | 54° |
| 2026-04-21 04:10 | -35.31889 | 148.47761 | 37385 ft | 456 kts | 55° |
| 2026-04-21 04:11 | -35.28025 | 148.53931 | 37379 ft | 457 kts | 54° |
| 2026-04-21 04:11 | -35.24174 | 148.60060 | 37386 ft | 457 kts | 54° |
| 2026-04-21 04:12 | -35.20305 | 148.66211 | 37384 ft | 457 kts | 55° |
| 2026-04-21 04:12 | -35.16430 | 148.72363 | 37381 ft | 456 kts | 55° |
| 2026-04-21 04:13 | -35.12550 | 148.78507 | 37376 ft | 456 kts | 55° |
| 2026-04-21 04:13 | -35.08664 | 148.84654 | 37383 ft | 458 kts | 54° |
| 2026-04-21 04:14 | -35.04766 | 148.90805 | 37378 ft | 457 kts | 54° |
| 2026-04-21 04:14 | -35.00875 | 148.96937 | 37382 ft | 457 kts | 54° |
| 2026-04-21 04:15 | -34.96973 | 149.03078 | 36722 ft | 459 kts | 54° |
| 2026-04-21 04:15 | -34.95018 | 149.06147 | 36171 ft | 457 kts | 54° |
| 2026-04-21 04:15 | -34.93073 | 149.09197 | 35657 ft | 454 kts | 54° |
| 2026-04-21 04:15 | -34.91142 | 149.12224 | 35141 ft | 451 kts | 54° |
| 2026-04-21 04:16 | -34.89219 | 149.15238 | 34631 ft | 449 kts | 54° |
| 2026-04-21 04:16 | -34.87312 | 149.18226 | 34124 ft | 445 kts | 55° |
| 2026-04-21 04:16 | -34.85419 | 149.21192 | 33624 ft | 443 kts | 54° |
| 2026-04-21 04:16 | -34.83506 | 149.24185 | 33118 ft | 454 kts | 55° |
| 2026-04-21 04:17 | -34.81552 | 149.27236 | 32592 ft | 456 kts | 54° |
| 2026-04-21 04:17 | -34.79605 | 149.30267 | 32078 ft | 454 kts | 54° |
| 2026-04-21 04:17 | -34.77657 | 149.33298 | 31559 ft | 455 kts | 54° |
| 2026-04-21 04:17 | -34.75708 | 149.36336 | 31044 ft | 456 kts | 54° |
| 2026-04-21 04:18 | -34.73868 | 149.39452 | 30547 ft | 451 kts | 62° |
| 2026-04-21 04:18 | -34.72350 | 149.42798 | 30027 ft | 452 kts | 65° |
| 2026-04-21 04:18 | -34.70872 | 149.46146 | 29505 ft | 445 kts | 65° |
| 2026-04-21 04:18 | -34.69438 | 149.49435 | 29003 ft | 438 kts | 65° |
| 2026-04-21 04:19 | -34.68031 | 149.52687 | 28506 ft | 431 kts | 65° |
| 2026-04-21 04:19 | -34.66646 | 149.55879 | 28029 ft | 424 kts | 65° |
| 2026-04-21 04:19 | -34.65272 | 149.59026 | 27554 ft | 420 kts | 65° |
| 2026-04-21 04:19 | -34.63879 | 149.62213 | 27063 ft | 432 kts | 65° |
| 2026-04-21 04:20 | -34.62493 | 149.65370 | 26581 ft | 425 kts | 65° |
| 2026-04-21 04:20 | -34.61093 | 149.68549 | 26099 ft | 418 kts | 65° |
| 2026-04-21 04:20 | -34.59756 | 149.71590 | 25637 ft | 411 kts | 65° |
| 2026-04-21 04:20 | -34.58423 | 149.74628 | 25174 ft | 405 kts | 66° |
| 2026-04-21 04:21 | -34.57080 | 149.77701 | 24714 ft | 417 kts | 66° |
| 2026-04-21 04:21 | -34.55725 | 149.80788 | 24237 ft | 411 kts | 65° |
| 2026-04-21 04:21 | -34.54390 | 149.83811 | 23772 ft | 403 kts | 65° |
| 2026-04-21 04:21 | -34.53076 | 149.86779 | 23320 ft | 395 kts | 65° |
| 2026-04-21 04:22 | -34.51772 | 149.89730 | 22900 ft | 405 kts | 65° |
| 2026-04-21 04:22 | -34.50441 | 149.92760 | 22469 ft | 406 kts | 65° |
| 2026-04-21 04:22 | -34.49113 | 149.95770 | 22031 ft | 404 kts | 65° |
| 2026-04-21 04:22 | -34.47794 | 149.98747 | 21575 ft | 400 kts | 65° |
| 2026-04-21 04:23 | -34.46490 | 150.01685 | 21129 ft | 392 kts | 65° |
| 2026-04-21 04:23 | -34.45207 | 150.04579 | 20688 ft | 388 kts | 65° |
| 2026-04-21 04:23 | -34.43938 | 150.07447 | 20253 ft | 385 kts | 65° |
| 2026-04-21 04:23 | -34.42676 | 150.10293 | 19810 ft | 382 kts | 65° |
| 2026-04-21 04:24 | -34.41423 | 150.13116 | 19358 ft | 379 kts | 65° |
| 2026-04-21 04:24 | -34.40178 | 150.15917 | 18917 ft | 377 kts | 65° |
| 2026-04-21 04:24 | -34.38939 | 150.18702 | 18481 ft | 374 kts | 65° |
| 2026-04-21 04:24 | -34.37709 | 150.21463 | 18031 ft | 372 kts | 65° |
| 2026-04-21 04:25 | -34.36488 | 150.24206 | 17592 ft | 369 kts | 65° |
| 2026-04-21 04:25 | -34.35272 | 150.26932 | 17155 ft | 366 kts | 65° |
| 2026-04-21 04:25 | -34.34067 | 150.29635 | 16702 ft | 363 kts | 65° |
| 2026-04-21 04:25 | -34.32870 | 150.32313 | 16235 ft | 361 kts | 65° |
| 2026-04-21 04:26 | -34.31679 | 150.34974 | 15790 ft | 357 kts | 65° |
| 2026-04-21 04:26 | -34.30499 | 150.37610 | 15350 ft | 356 kts | 64° |
| 2026-04-21 04:26 | -34.29325 | 150.40234 | 14905 ft | 353 kts | 64° |
| 2026-04-21 04:26 | -34.28160 | 150.42836 | 14463 ft | 351 kts | 64° |
| 2026-04-21 04:27 | -34.27003 | 150.45419 | 14071 ft | 347 kts | 64° |
| 2026-04-21 04:27 | -34.25858 | 150.47982 | 13718 ft | 346 kts | 64° |
| 2026-04-21 04:27 | -34.24720 | 150.50533 | 13383 ft | 345 kts | 64° |
| 2026-04-21 04:27 | -34.23966 | 150.52222 | 13159 ft | 344 kts | 64° |
| 2026-04-21 04:28 | -34.22446 | 150.55618 | 12700 ft | 343 kts | 64° |
| 2026-04-21 04:28 | -34.21695 | 150.57292 | 12471 ft | 342 kts | 64° |
| 2026-04-21 04:28 | -34.20563 | 150.59808 | 12128 ft | 340 kts | 64° |
| 2026-04-21 04:28 | -34.19438 | 150.62314 | 11773 ft | 338 kts | 64° |
| 2026-04-21 04:29 | -34.18324 | 150.64797 | 11430 ft | 335 kts | 64° |
| 2026-04-21 04:29 | -34.17226 | 150.67242 | 11088 ft | 327 kts | 64° |
| 2026-04-21 04:29 | -34.16152 | 150.69628 | 10748 ft | 320 kts | 64° |
| 2026-04-21 04:29 | -34.15098 | 150.71970 | 10394 ft | 314 kts | 64° |
| 2026-04-21 04:30 | -34.14063 | 150.74266 | 10043 ft | 309 kts | 64° |
| 2026-04-21 04:30 | -34.13046 | 150.76523 | 9698 ft | 304 kts | 64° |
| 2026-04-21 04:30 | -34.12041 | 150.78754 | 9350 ft | 300 kts | 64° |
| 2026-04-21 04:30 | -34.11053 | 150.80943 | 9022 ft | 296 kts | 64° |
| 2026-04-21 04:31 | -34.10075 | 150.83108 | 8665 ft | 292 kts | 64° |
| 2026-04-21 04:31 | -34.09111 | 150.85246 | 8311 ft | 288 kts | 64° |
| 2026-04-21 04:31 | -34.08160 | 150.87361 | 7969 ft | 285 kts | 65° |
| 2026-04-21 04:31 | -34.07219 | 150.89454 | 7620 ft | 282 kts | 64° |
| 2026-04-21 04:32 | -34.06289 | 150.91526 | 7285 ft | 280 kts | 65° |
| 2026-04-21 04:32 | -34.05365 | 150.93576 | 6931 ft | 277 kts | 64° |
| 2026-04-21 04:32 | -34.04459 | 150.95577 | 6586 ft | 275 kts | 65° |
| 2026-04-21 04:32 | -34.03535 | 150.97622 | 6232 ft | 274 kts | 64° |
| 2026-04-21 04:33 | -34.02573 | 150.99567 | 5949 ft | 276 kts | 51° |
| 2026-04-21 04:33 | -34.00965 | 151.00819 | 5732 ft | 282 kts | 18° |
| 2026-04-21 04:33 | -33.98995 | 151.01203 | 5496 ft | 285 kts | 3° |
| 2026-04-21 04:33 | -33.97038 | 151.01185 | 5250 ft | 285 kts | 357° |
| 2026-04-21 04:34 | -33.95068 | 151.01002 | 5000 ft | 284 kts | 354° |
| 2026-04-21 04:34 | -33.93112 | 151.00749 | 4756 ft | 283 kts | 353° |
| 2026-04-21 04:34 | -33.91156 | 151.00468 | 4504 ft | 281 kts | 353° |
| 2026-04-21 04:34 | -33.89214 | 151.00179 | 4254 ft | 281 kts | 353° |
| 2026-04-21 04:35 | -33.87279 | 150.99885 | 4038 ft | 280 kts | 353° |
| 2026-04-21 04:35 | -33.85357 | 150.99587 | 4030 ft | 279 kts | 353° |
| 2026-04-21 04:35 | -33.83429 | 150.99289 | 4023 ft | 281 kts | 353° |
| 2026-04-21 04:35 | -33.81488 | 150.98988 | 4004 ft | 281 kts | 353° |
| 2026-04-21 04:36 | -33.79549 | 150.98687 | 4005 ft | 280 kts | 353° |
| 2026-04-21 04:36 | -33.77658 | 150.98396 | 4016 ft | 265 kts | 353° |
| 2026-04-21 04:36 | -33.75867 | 150.98120 | 4010 ft | 256 kts | 353° |
| 2026-04-21 04:36 | -33.74148 | 150.98310 | 4028 ft | 244 kts | 26° |
| 2026-04-21 04:37 | -33.72944 | 150.99571 | 3985 ft | 222 kts | 63° |
| 2026-04-21 04:37 | -33.72332 | 151.01326 | 3886 ft | 233 kts | 79° |
| 2026-04-21 04:37 | -33.72030 | 151.03198 | 3762 ft | 223 kts | 87° |
| 2026-04-21 04:37 | -33.71878 | 151.04997 | 3654 ft | 211 kts | 90° |
| 2026-04-21 04:38 | -33.71798 | 151.06708 | 3552 ft | 198 kts | 97° |
| 2026-04-21 04:38 | -33.72190 | 151.08198 | 3418 ft | 180 kts | 123° |
| 2026-04-21 04:38 | -33.72908 | 151.09378 | 3212 ft | 173 kts | 135° |
| 2026-04-21 04:38 | -33.73747 | 151.10399 | 3031 ft | 168 kts | 140° |
| 2026-04-21 04:39 | -33.74633 | 151.11331 | 3037 ft | 177 kts | 143° |
| 2026-04-21 04:39 | -33.75589 | 151.12261 | 3005 ft | 174 kts | 147° |
| 2026-04-21 04:39 | -33.76651 | 151.12906 | 3008 ft | 170 kts | 164° |
| 2026-04-21 04:39 | -33.77809 | 151.13224 | 2993 ft | 173 kts | 168° |
| 2026-04-21 04:40 | -33.79001 | 151.13533 | 2789 ft | 175 kts | 168° |
| 2026-04-21 04:40 | -33.80172 | 151.13837 | 2560 ft | 170 kts | 169° |
| 2026-04-21 04:40 | -33.81332 | 151.14138 | 2352 ft | 169 kts | 169° |
| 2026-04-21 04:40 | -33.82441 | 151.14427 | 2137 ft | 158 kts | 169° |
| 2026-04-21 04:41 | -33.83507 | 151.14704 | 1929 ft | 157 kts | 169° |
| 2026-04-21 04:41 | -33.84577 | 151.14983 | 1718 ft | 157 kts | 169° |
| 2026-04-21 04:41 | -33.85641 | 151.15259 | 1514 ft | 157 kts | 170° |
| 2026-04-21 04:41 | -33.86707 | 151.15536 | 1303 ft | 157 kts | 170° |
| 2026-04-21 04:42 | -33.87768 | 151.15811 | 1108 ft | 156 kts | 170° |
| 2026-04-21 04:42 | -33.88815 | 151.16084 | 916 ft | 150 kts | 170° |
| 2026-04-21 04:42 | -33.89807 | 151.16342 | 716 ft | 145 kts | 170° |
| 2026-04-21 04:42 | -33.90784 | 151.16596 | 518 ft | 143 kts | 170° |
| 2026-04-21 04:43 | -33.91750 | 151.16848 | 319 ft | 141 kts | 169° |
| 2026-04-21 04:43 | -33.92713 | 151.17094 | 104 ft | 143 kts | 168° |
| 2026-04-21 04:43 | -33.93660 | 151.17347 | 29 ft | 123 kts | 168° |
| 2026-04-21 04:43 | -33.94266 | 151.17516 | 28 ft | 58 kts | 156° |
| 2026-04-21 04:44 | -33.94459 | 151.17658 | 28 ft | 21 kts | 143° |
| 2026-04-21 04:44 | -33.94492 | 151.17768 | 29 ft | 14 kts | 29° |
| 2026-04-21 04:44 | -33.94413 | 151.17760 | 29 ft | 9 kts | 344° |
| 2026-04-21 04:44 | -33.94358 | 151.17742 | 29 ft | 7 kts | 346° |
| 2026-04-21 04:45 | -33.94316 | 151.17729 | 28 ft | 6 kts | 346° |
| 2026-04-21 04:45 | -33.94271 | 151.17716 | 29 ft | 8 kts | 346° |
| 2026-04-21 04:45 | -33.94206 | 151.17696 | 29 ft | 11 kts | 346° |
| 2026-04-21 04:45 | -33.94120 | 151.17669 | 28 ft | 15 kts | 346° |
| 2026-04-21 04:46 | -33.93998 | 151.17636 | 28 ft | 21 kts | 347° |
| 2026-04-21 04:46 | -33.93851 | 151.17596 | 28 ft | 21 kts | 347° |
| 2026-04-21 04:46 | -33.93701 | 151.17559 | 28 ft | 23 kts | 348° |
| 2026-04-21 04:46 | -33.93533 | 151.17515 | 28 ft | 25 kts | 348° |
| 2026-04-21 04:47 | -33.93357 | 151.17497 | 29 ft | 26 kts | 350° |
| 2026-04-21 04:47 | -33.93184 | 151.17452 | 29 ft | 24 kts | 347° |
| 2026-04-21 04:47 | -33.93058 | 151.17508 | 28 ft | 20 kts | 51° |
| 2026-04-21 04:47 | -33.93011 | 151.17633 | 29 ft | 16 kts | 101° |
| 2026-04-21 04:48 | -33.93051 | 151.17753 | 28 ft | 15 kts | 108° |
| 2026-04-21 04:48 | -33.93071 | 151.17865 | 29 ft | 13 kts | 101° |
| 2026-04-21 04:48 | -33.93086 | 151.17966 | 29 ft | 12 kts | 100° |
| 2026-04-21 04:48 | -33.93101 | 151.18030 | 29 ft | 4 kts | 135° |
| 2026-04-21 04:49 | -33.93126 | 151.18034 | 28 ft | 3 kts | 184° |
| 2026-04-21 04:49 | -33.93142 | 151.18031 | 28 ft | 2 kts | 190° |
| 2026-04-21 04:49 | -33.93151 | 151.18028 | 29 ft | 1 kts | 190° |
| 2026-04-21 04:49 | -33.93166 | 151.18025 | 29 ft | 3 kts | 189° |
| 2026-04-21 04:50 | -33.93172 | 151.18024 | 29 ft | 0 kts | 189° |